Time;durP1;ratioP1;P1;durP2;ratioP2;P2;SDS_P1;SDS_P2;PMS_P1;PMS_P2;Temp;Humidity;BMP_temperature;BMP_pressure;BME280_temperature;BME280_humidity;BME280_pressure;Samples;Min_cycle;Max_cycle;Signal;HPM_P1;HPM_P2
2021/03/30 00:01:15;;;;;;;;;;;;;;;12.78;42.43;102443.00;4935598;28;7448;-78
2021/03/30 00:03:40;;;;;;;;;;;;;;;12.74;42.78;102450.66;4920254;28;7125;-78
2021/03/30 00:06:06;;;;;;;;;;;;;;;12.69;42.84;102447.84;4950149;28;7929;-78
2021/03/30 00:08:31;;;;;;;;;;;;;;;12.63;42.90;102451.94;4952083;28;7180;-78
2021/03/30 00:10:57;;;;;;;;;;;;;;;12.60;42.59;102454.38;4933039;28;7404;-78
2021/03/30 00:13:24;;;;;;;;;;;;;;;12.55;42.78;102443.78;4936075;28;8638;-78
2021/03/30 00:15:49;;;;;;;;;;;;;;;12.49;43.10;102449.63;4931926;28;6804;-78
2021/03/30 00:18:15;;;;;;;;;;;;;;;12.46;43.05;102446.91;4936620;28;6847;-78
2021/03/30 00:20:41;;;;;;;;;;;;;;;12.42;43.14;102454.53;4921194;28;7506;-78
2021/03/30 00:23:06;;;;;;;;;;;;;;;12.36;42.84;102452.53;4919015;28;8312;-78
2021/03/30 00:25:32;;;;;;;;;;;;;;;12.29;43.16;102445.28;4936507;28;7372;-78
2021/03/30 00:27:57;;;;;;;;;;;;;;;12.25;43.09;102443.38;4941292;28;7041;-78
2021/03/30 00:30:23;;;;;;;;;;;;;;;12.22;43.54;102442.34;4953523;28;6811;-78
2021/03/30 00:32:48;;;;;;;;;;;;;;;12.17;43.14;102439.53;4920723;28;7227;-78
2021/03/30 00:35:14;;;;;;;;;;;;;;;12.12;43.44;102439.34;4936329;28;8515;-78
2021/03/30 00:37:39;;;;;;;;;;;;;;;12.09;43.50;102438.31;4933078;28;7386;-78
2021/03/30 00:40:07;;;;;;;;;;;;;;;12.04;43.28;102443.31;4930700;28;7080;-78
2021/03/30 00:42:33;;;;;;;;;;;;;;;12.00;43.57;102430.97;4948310;28;8428;-78
2021/03/30 00:44:58;;;;;;;;;;;;;;;11.95;43.59;102439.41;4939420;28;7135;-78
2021/03/30 00:47:24;;;;;;;;;;;;;;;11.93;43.41;102441.06;4935702;28;8512;-78
2021/03/30 00:49:50;;;;;;;;;;;;;;;11.89;44.15;102440.03;4939189;28;6817;-79
2021/03/30 00:52:16;;;;;;;;;;;;;;;11.83;44.04;102448.47;4933768;28;6856;-78
2021/03/30 00:54:42;;;;;;;;;;;;;;;11.81;44.14;102446.59;4924532;28;7148;-78
2021/03/30 00:57:08;;;;;;;;;;;;;;;11.76;44.22;102442.84;4936761;28;6987;-78
2021/03/30 00:59:33;;;;;;;;;;;;;;;11.74;43.82;102439.31;4940589;28;7916;-78
2021/03/30 01:01:59;;;;;;;;;;;;;;;11.69;43.82;102444.31;4953298;28;6918;-78
2021/03/30 01:04:25;;;;;;;;;;;;;;;11.65;44.14;102447.59;4939785;28;11083;-78
2021/03/30 01:06:50;;;;;;;;;;;;;;;11.59;44.30;102434.28;4920992;28;7499;-78
2021/03/30 01:09:28;;;;;;;;;;;;;;;11.54;44.59;102441.00;4937068;28;7068;-78
2021/03/30 01:12:31;;;;;;;;;;;;;;;11.49;44.61;102442.50;4942670;28;7356;-78
2021/03/30 01:15:35;;;;;;;;;;;;;;;11.43;44.43;102439.63;4927084;28;11484;-78
2021/03/30 01:18:13;;;;;;;;;;;;;;;11.40;44.48;102439.44;4929022;28;11491;-78
2021/03/30 01:20:57;;;;;;;;;;;;;;;11.36;44.68;102446.22;4957345;28;7132;-78
2021/03/30 01:23:44;;;;;;;;;;;;;;;11.33;44.38;102442.59;4953250;28;6832;-78
2021/03/30 01:26:25;;;;;;;;;;;;;;;11.26;44.42;102446.63;4952387;28;11082;-78
2021/03/30 01:29:18;;;;;;;;;;;;;;;11.20;44.55;102439.41;4956276;28;7072;-78
2021/03/30 01:31:46;;;;;;;;;;;;;;;11.15;45.00;102434.81;4955739;28;11187;-78
2021/03/30 01:34:12;;;;;;;;;;;;;;;11.13;45.16;102446.84;4924393;28;8299;-78
2021/03/30 01:36:39;;;;;;;;;;;;;;;11.10;45.31;102439.78;4917008;28;7076;-78
2021/03/30 01:39:06;;;;;;;;;;;;;;;11.08;45.18;102436.22;4940176;28;6861;-78
2021/03/30 01:41:31;;;;;;;;;;;;;;;11.04;45.20;102441.22;4908430;28;6793;-78
2021/03/30 01:43:57;;;;;;;;;;;;;;;10.98;44.90;102440.09;4919790;28;7227;-78
2021/03/30 01:46:22;;;;;;;;;;;;;;;10.95;45.25;102439.94;4924043;28;7196;-78
2021/03/30 01:48:48;;;;;;;;;;;;;;;10.91;45.54;102437.13;4922059;28;7348;-78
2021/03/30 01:51:14;;;;;;;;;;;;;;;10.85;45.07;102442.91;4922428;28;7389;-78
2021/03/30 01:53:41;;;;;;;;;;;;;;;10.83;45.51;102438.47;4944883;28;6996;-78
2021/03/30 01:56:07;;;;;;;;;;;;;;;10.79;45.68;102432.19;4923066;28;8494;-78
2021/03/30 01:58:32;;;;;;;;;;;;;;;10.76;45.39;102436.38;4940580;28;6777;-78
2021/03/30 02:00:58;;;;;;;;;;;;;;;10.73;45.58;102433.63;4955760;28;6796;-78
2021/03/30 02:03:24;;;;;;;;;;;;;;;10.70;45.79;102436.06;4941844;28;7048;-78
2021/03/30 02:05:49;;;;;;;;;;;;;;;10.66;45.69;102435.94;4942848;28;7284;-78
2021/03/30 02:08:15;;;;;;;;;;;;;;;10.61;45.56;102432.22;4919143;28;7171;-78
2021/03/30 02:13:07;;;;;;;;;;;;;;;10.53;46.00;102443.03;4955191;28;6871;-78
2021/03/30 02:15:33;;;;;;;;;;;;;;;10.48;45.80;102442.78;4934887;28;7243;-78
2021/03/30 02:18:09;;;;;;;;;;;;;;;10.46;46.26;102438.34;4941520;28;8516;-78
2021/03/30 02:20:39;;;;;;;;;;;;;;;10.43;46.13;102440.78;4926018;28;11401;-78
2021/03/30 02:23:16;;;;;;;;;;;;;;;10.38;46.06;102432.75;4930153;28;7270;-78
2021/03/30 02:25:46;;;;;;;;;;;;;;;10.36;46.43;102439.56;4922630;28;7325;-78
2021/03/30 02:28:12;;;;;;;;;;;;;;;10.32;46.10;102440.22;4950733;28;6832;-78
2021/03/30 02:30:38;;;;;;;;;;;;;;;10.26;46.28;102435.63;4926294;28;7586;-78
2021/03/30 02:33:04;;;;;;;;;;;;;;;10.24;46.29;102432.06;4914627;28;8784;-78
2021/03/30 02:35:29;;;;;;;;;;;;;;;10.22;46.66;102431.09;4927474;28;7239;-78
2021/03/30 02:37:55;;;;;;;;;;;;;;;10.16;46.14;102432.44;4924779;28;8509;-78
2021/03/30 02:40:21;;;;;;;;;;;;;;;10.15;46.49;102433.25;4954518;28;7940;-78
2021/03/30 02:42:47;;;;;;;;;;;;;;;10.10;46.95;102429.53;4939555;28;7333;-78
2021/03/30 02:45:14;;;;;;;;;;;;;;;10.06;46.40;102431.97;4952110;28;6793;-78
2021/03/30 02:47:40;;;;;;;;;;;;;;;10.02;46.45;102432.63;4957221;28;8424;-78
2021/03/30 02:50:06;;;;;;;;;;;;;;;9.95;47.07;102427.00;4920262;28;7242;-78
2021/03/30 02:52:33;;;;;;;;;;;;;;;9.95;47.15;102432.19;4951764;28;6988;-78
2021/03/30 02:54:58;;;;;;;;;;;;;;;9.93;46.91;102436.41;4905485;28;11462;-78
2021/03/30 02:57:24;;;;;;;;;;;;;;;9.90;47.03;102431.97;4902727;28;7338;-78
2021/03/30 02:59:52;;;;;;;;;;;;;;;9.86;47.50;102439.50;4956407;28;6800;-78
2021/03/30 03:02:18;;;;;;;;;;;;;;;9.84;46.81;102433.34;4919412;28;6808;-78
2021/03/30 03:04:47;;;;;;;;;;;;;;;9.81;47.12;102444.47;4939734;28;7351;-78
2021/03/30 03:07:12;;;;;;;;;;;;;;;9.76;47.19;102441.59;4956271;28;7412;-78
2021/03/30 03:09:38;;;;;;;;;;;;;;;9.73;46.80;102440.56;4939716;28;7241;-78
2021/03/30 03:12:04;;;;;;;;;;;;;;;9.69;47.30;102434.31;4904836;28;8477;-78
2021/03/30 03:14:30;;;;;;;;;;;;;;;9.65;47.72;102428.88;4924307;28;7239;-78
2021/03/30 03:16:55;;;;;;;;;;;;;;;9.60;47.53;102428.63;4921726;28;7123;-78
2021/03/30 03:19:21;;;;;;;;;;;;;;;9.58;47.98;102422.47;4937325;28;6783;-78
2021/03/30 03:21:47;;;;;;;;;;;;;;;9.54;47.50;102430.88;4940245;28;7096;-78
2021/03/30 03:24:13;;;;;;;;;;;;;;;9.53;47.42;102428.22;4936472;28;6989;-78
2021/03/30 03:26:39;;;;;;;;;;;;;;;9.49;47.59;102426.28;4937823;28;7471;-78
2021/03/30 03:29:24;;;;;;;;;;;;;;;9.44;47.85;102431.22;4953961;28;7216;-78
2021/03/30 03:31:50;;;;;;;;;;;;;;;9.42;47.68;102431.13;4938172;28;7010;-78
2021/03/30 03:34:17;;;;;;;;;;;;;;;9.39;47.87;102430.03;4920092;28;8733;-78
2021/03/30 03:36:44;;;;;;;;;;;;;;;9.34;48.02;102432.41;4925301;28;8485;-78
2021/03/30 03:39:10;;;;;;;;;;;;;;;9.32;47.89;102433.13;4937643;28;7598;-78
2021/03/30 03:41:36;;;;;;;;;;;;;;;9.28;47.84;102429.47;4939278;28;7136;-78
2021/03/30 03:44:02;;;;;;;;;;;;;;;9.24;48.34;102427.53;4942273;28;7621;-78
2021/03/30 03:46:28;;;;;;;;;;;;;;;9.21;48.09;102427.38;4920032;28;7549;-78
2021/03/30 03:48:53;;;;;;;;;;;;;;;9.19;48.08;102441.00;4912495;28;6979;-78
2021/03/30 03:51:19;;;;;;;;;;;;;;;9.17;47.95;102437.44;4941652;28;6796;-78
2021/03/30 03:53:46;;;;;;;;;;;;;;;9.11;48.15;102441.50;4928559;28;8455;-78
2021/03/30 03:56:12;;;;;;;;;;;;;;;9.10;48.23;102437.13;4950537;28;7132;-78
2021/03/30 03:58:39;;;;;;;;;;;;;;;9.08;48.30;102432.66;4940074;28;7049;-78
2021/03/30 04:01:06;;;;;;;;;;;;;;;9.03;48.27;102440.19;4905516;28;7029;-78
2021/03/30 04:03:36;;;;;;;;;;;;;;;9.01;48.11;102443.47;4922121;28;11049;-78
2021/03/30 04:06:14;;;;;;;;;;;;;;;8.95;48.27;102438.84;4937420;28;11461;-78
2021/03/30 04:08:55;;;;;;;;;;;;;;;8.90;48.46;102442.88;4922802;28;11292;-78
2021/03/30 04:11:21;;;;;;;;;;;;;;;8.89;48.82;102435.03;4941207;28;7237;-78
2021/03/30 04:13:46;;;;;;;;;;;;;;;8.84;48.59;102438.25;4933793;28;6979;-78
2021/03/30 04:16:12;;;;;;;;;;;;;;;8.82;48.86;102441.56;4938263;28;7249;-78
2021/03/30 04:18:41;;;;;;;;;;;;;;;8.77;48.65;102436.09;4956503;28;7022;-78
2021/03/30 04:21:15;;;;;;;;;;;;;;;8.77;48.81;102438.69;4952851;28;7254;-78
2021/03/30 04:23:45;;;;;;;;;;;;;;;8.76;48.70;102444.66;4920492;28;6884;-78
2021/03/30 04:26:11;;;;;;;;;;;;;;;8.71;49.04;102447.81;4952861;28;7306;-77
2021/03/30 04:28:36;;;;;;;;;;;;;;;8.65;49.10;102443.19;4924824;28;6784;-78
2021/03/30 04:31:02;;;;;;;;;;;;;;;8.60;48.97;102446.28;4924231;28;8393;-78
2021/03/30 04:33:27;;;;;;;;;;;;;;;8.60;49.49;102446.28;4939693;28;6796;-78
2021/03/30 04:35:53;;;;;;;;;;;;;;;8.56;49.20;102442.63;4951630;28;8378;-77
2021/03/30 04:38:18;;;;;;;;;;;;;;;8.56;49.10;102440.03;4954134;28;7744;-78
2021/03/30 04:40:50;;;;;;;;;;;;;;;8.53;49.29;102452.81;4954074;28;6808;-78
2021/03/30 04:43:15;;;;;;;;;;;;;;;8.51;49.39;102457.91;4940713;28;8614;-78
2021/03/30 04:45:41;;;;;;;;;;;;;;;8.51;49.24;102457.91;4939027;28;7351;-78
2021/03/30 04:48:07;;;;;;;;;;;;;;;8.43;49.32;102459.16;4953109;28;6975;-78
2021/03/30 04:50:33;;;;;;;;;;;;;;;8.40;49.62;102460.66;4924841;28;7521;-78
2021/03/30 04:52:58;;;;;;;;;;;;;;;8.34;49.48;102461.19;4954541;28;7624;-78
2021/03/30 04:55:24;;;;;;;;;;;;;;;8.35;49.35;102454.31;4952070;28;7135;-78
2021/03/30 04:57:49;;;;;;;;;;;;;;;8.37;49.83;102460.47;4941003;28;6871;-78
2021/03/30 05:00:17;;;;;;;;;;;;;;;8.32;49.49;102465.34;4936837;28;7929;-78
2021/03/30 05:02:43;;;;;;;;;;;;;;;8.29;49.35;102470.34;4920773;28;7185;-78
2021/03/30 05:05:09;;;;;;;;;;;;;;;8.28;50.11;102463.38;4950733;28;7567;-78
2021/03/30 05:07:35;;;;;;;;;;;;;;;8.26;49.87;102464.09;4936553;28;7247;-78
2021/03/30 05:10:00;;;;;;;;;;;;;;;8.20;49.84;102468.06;4937216;28;7427;-78
2021/03/30 05:12:26;;;;;;;;;;;;;;;8.20;49.88;102464.59;4938273;28;7369;-78
2021/03/30 05:14:52;;;;;;;;;;;;;;;8.17;50.25;102465.31;4919614;28;7565;-78
2021/03/30 05:17:17;;;;;;;;;;;;;;;8.17;50.14;102467.00;4954381;28;7238;-77
2021/03/30 05:19:43;;;;;;;;;;;;;;;8.12;49.92;102466.75;4923185;28;8422;-77
2021/03/30 05:22:08;;;;;;;;;;;;;;;8.14;49.78;102465.13;4916962;28;7456;-78
2021/03/30 05:24:34;;;;;;;;;;;;;;;8.17;49.56;102469.59;4934382;28;6810;-78
2021/03/30 05:26:59;;;;;;;;;;;;;;;8.17;49.73;102474.78;4947587;28;8431;-78
2021/03/30 05:29:25;;;;;;;;;;;;;;;8.15;49.97;102469.50;4934719;28;7842;-78
2021/03/30 05:31:50;;;;;;;;;;;;;;;8.14;49.95;102462.53;4938309;28;7202;-78
2021/03/30 05:34:16;;;;;;;;;;;;;;;8.17;49.98;102475.66;4930140;28;7147;-78
2021/03/30 05:36:41;;;;;;;;;;;;;;;8.17;49.83;102474.78;4954597;28;6792;-78
2021/03/30 05:39:07;;;;;;;;;;;;;;;8.18;49.46;102476.56;4948013;28;8591;-78
2021/03/30 05:41:33;;;;;;;;;;;;;;;8.18;49.73;102482.63;4954096;28;11441;-78
2021/03/30 05:43:58;;;;;;;;;;;;;;;8.16;49.85;102479.06;4922233;28;7519;-78
2021/03/30 05:46:24;;;;;;;;;;;;;;;8.16;49.57;102486.81;4898325;28;8561;-78
2021/03/30 05:48:51;;;;;;;;;;;;;;;8.19;49.79;102489.59;4951612;28;7480;-78
2021/03/30 05:51:17;;;;;;;;;;;;;;;8.21;49.70;102488.00;4918247;28;8627;-78
2021/03/30 05:53:45;;;;;;;;;;;;;;;8.23;49.41;102498.47;4944147;28;7339;-78
2021/03/30 05:56:10;;;;;;;;;;;;;;;8.24;49.04;102503.72;4917405;28;8534;-77
2021/03/30 05:58:36;;;;;;;;;;;;;;;8.23;49.71;102496.75;4935931;28;8506;-78
2021/03/30 06:01:05;;;;;;;;;;;;;;;8.25;49.36;102494.25;4915149;28;7305;-78
2021/03/30 06:03:31;;;;;;;;;;;;;;;8.26;49.15;102497.75;4914137;28;7362;-78
2021/03/30 06:05:58;;;;;;;;;;;;;;;8.28;49.23;102499.63;4913580;28;7313;-75
2021/03/30 06:08:25;;;;;;;;;;;;;;;8.31;48.82;102499.81;4911462;28;7370;-73
2021/03/30 06:10:51;;;;;;;;;;;;;;;8.33;49.07;102500.78;4934613;28;7404;-76
2021/03/30 06:13:37;;;;;;;;;;;;;;;8.31;49.14;102504.97;4917796;28;8095;-77
2021/03/30 06:16:25;;;;;;;;;;;;;;;8.39;49.24;102506.34;4945650;28;6943;-76
2021/03/30 06:19:13;;;;;;;;;;;;;;;8.44;48.75;102512.72;4924162;28;14194;-76
2021/03/30 06:21:58;;;;;;;;;;;;;;;8.50;48.53;102504.41;4927288;28;12337;-75
2021/03/30 06:24:24;;;;;;;;;;;;;;;8.56;48.54;102506.47;4913874;28;11576;-75
2021/03/30 06:26:53;;;;;;;;;;;;;;;8.59;48.66;102509.22;4948340;28;6875;-76
2021/03/30 06:29:37;;;;;;;;;;;;;;;8.63;48.21;102506.94;4950485;28;7404;-76
2021/03/30 06:32:04;;;;;;;;;;;;;;;8.64;48.62;102519.09;4905563;28;7478;-75
2021/03/30 06:34:29;;;;;;;;;;;;;;;8.67;48.17;102514.09;4950216;28;7605;-75
2021/03/30 06:36:55;;;;;;;;;;;;;;;8.72;48.16;102519.53;4939552;28;7763;-76
2021/03/30 06:39:35;;;;;;;;;;;;;;;8.71;48.16;102513.44;4931781;28;8555;-77
2021/03/30 06:42:07;;;;;;;;;;;;;;;8.76;47.82;102514.59;4939337;28;7340;-74
2021/03/30 06:44:34;;;;;;;;;;;;;;;8.78;48.10;102513.00;4938271;28;6840;-75
2021/03/30 06:47:15;;;;;;;;;;;;;;;8.81;48.14;102510.63;4940066;28;6798;-78
2021/03/30 06:49:50;;;;;;;;;;;;;;;8.84;48.20;102515.06;4944890;28;11279;-75
2021/03/30 06:52:35;;;;;;;;;;;;;;;8.89;48.01;102517.94;4954425;28;7145;-79
2021/03/30 06:55:04;;;;;;;;;;;;;;;8.92;47.68;102516.41;4916809;28;6816;-77
2021/03/30 06:57:40;;;;;;;;;;;;;;;8.95;47.82;102519.16;4959489;28;7313;-78
2021/03/30 07:00:11;;;;;;;;;;;;;;;9.00;47.56;102524.59;4941336;28;7929;-76
2021/03/30 07:02:56;;;;;;;;;;;;;;;9.01;47.65;102518.63;4929217;28;7403;-77
2021/03/30 07:05:23;;;;;;;;;;;;;;;9.08;47.55;102524.25;4931658;28;11358;-76
2021/03/30 07:07:59;;;;;;;;;;;;;;;9.09;47.18;102519.97;4952652;28;7726;-76
2021/03/30 07:10:24;;;;;;;;;;;;;;;9.14;47.31;102523.72;4938746;28;7653;-77
2021/03/30 07:12:50;;;;;;;;;;;;;;;9.17;47.17;102521.28;4938627;28;6923;-76
2021/03/30 07:15:17;;;;;;;;;;;;;;;9.21;47.14;102515.50;4918623;28;8836;-77
2021/03/30 07:17:43;;;;;;;;;;;;;;;9.25;47.03;102520.03;4937058;28;7032;-74
2021/03/30 07:20:09;;;;;;;;;;;;;;;9.30;47.23;102520.28;4934737;28;6812;-76
2021/03/30 07:22:36;;;;;;;;;;;;;;;9.34;47.04;102522.25;4933269;28;6818;-75
2021/03/30 07:25:05;;;;;;;;;;;;;;;9.39;46.59;102523.38;4920093;28;7005;-78
2021/03/30 07:28:00;;;;;;;;;;;;;;;9.42;46.71;102523.59;4938773;28;6805;-79
2021/03/30 07:30:26;;;;;;;;;;;;;;;9.49;46.78;102527.41;4937564;28;11226;-76
2021/03/30 07:33:10;;;;;;;;;;;;;;;9.53;46.29;102517.28;4937832;28;6869;-77
2021/03/30 07:35:37;;;;;;;;;;;;;;;9.60;46.22;102524.59;4940717;28;7211;-77
2021/03/30 07:38:17;;;;;;;;;;;;;;;9.61;46.49;102520.28;4938724;28;7488;-76
2021/03/30 07:40:43;;;;;;;;;;;;;;;9.68;46.13;102525.03;4913410;28;11281;-74
2021/03/30 07:43:11;;;;;;;;;;;;;;;9.73;45.81;102511.50;4915536;28;13012;-74
2021/03/30 07:45:38;;;;;;;;;;;;;;;9.78;45.86;102516.94;4933550;28;6822;-74
2021/03/30 07:48:05;;;;;;;;;;;;;;;9.84;45.59;102514.69;4913857;28;7203;-75
2021/03/30 07:51:12;;;;;;;;;;;;;;;9.90;45.34;102508.94;4920898;28;7036;-75
2021/03/30 07:53:53;;;;;;;;;;;;;;;9.95;45.27;102516.13;4954988;28;11325;-73
2021/03/30 07:56:24;;;;;;;;;;;;;;;10.01;45.55;102519.09;4945419;28;12609;-75
2021/03/30 07:58:50;;;;;;;;;;;;;;;10.06;45.58;102516.72;4951430;28;7067;-75
2021/03/30 08:01:24;;;;;;;;;;;;;;;10.14;45.13;102519.72;4929749;28;7288;-75
2021/03/30 08:03:51;;;;;;;;;;;;;;;10.19;44.91;102519.16;4920507;28;8435;-75
2021/03/30 08:06:34;;;;;;;;;;;;;;;10.23;44.61;102523.75;4917864;28;6896;-74
2021/03/30 08:09:12;;;;;;;;;;;;;;;10.31;44.46;102513.75;4931510;28;6824;-76
2021/03/30 08:11:39;;;;;;;;;;;;;;;10.38;44.63;102520.16;4934745;28;6876;-76
2021/03/30 08:14:38;;;;;;;;;;;;;;;10.44;44.54;102517.91;4942322;28;7227;-76
2021/03/30 08:17:05;;;;;;;;;;;;;;;10.49;44.17;102519.00;4938601;28;12520;-75
2021/03/30 08:19:31;;;;;;;;;;;;;;;10.53;43.78;102511.44;4926240;28;7410;-75
2021/03/30 08:22:00;;;;;;;;;;;;;;;10.60;43.93;102516.13;4919122;28;6813;-75
2021/03/30 08:24:47;;;;;;;;;;;;;;;10.66;43.73;102507.78;4918436;28;7337;-75
2021/03/30 08:27:30;;;;;;;;;;;;;;;10.76;43.98;102511.72;4919274;28;11246;-74
2021/03/30 08:30:15;;;;;;;;;;;;;;;10.77;44.33;102511.81;4957083;28;11746;-74
2021/03/30 08:32:48;;;;;;;;;;;;;;;10.86;45.50;102517.47;4917170;28;6840;-75
2021/03/30 08:35:29;;;;;;;;;;;;;;;10.97;48.62;102518.00;4929798;28;11178;-75
2021/03/30 08:37:54;;;;;;;;;;;;;;;11.03;47.74;102517.44;4951210;28;12492;-75
2021/03/30 08:40:35;;;;;;;;;;;;;;;11.17;48.77;102514.66;4947441;28;7397;-77
2021/03/30 08:43:12;;;;;;;;;;;;;;;11.27;48.92;102518.63;4952245;28;7150;-76
2021/03/30 08:46:11;;;;;;;;;;;;;;;11.33;48.78;102513.72;4950024;28;7236;-75
2021/03/30 08:48:51;;;;;;;;;;;;;;;11.40;48.92;102523.59;4932504;28;11179;-74
2021/03/30 08:51:18;;;;;;;;;;;;;;;11.44;48.54;102522.94;4931008;28;12777;-76
2021/03/30 08:53:44;;;;;;;;;;;;;;;11.46;48.16;102518.69;4949126;28;6891;-76
2021/03/30 08:56:11;;;;;;;;;;;;;;;12.03;51.90;102516.16;4935028;28;7764;-76
2021/03/30 08:58:43;;;;;;;;;;;;;;;12.14;49.15;102507.09;4951771;28;7170;-75
2021/03/30 09:01:08;;;;;;;;;;;;;;;12.59;50.61;102509.94;4947351;28;7244;-75
2021/03/30 09:03:34;;;;;;;;;;;;;;;12.58;50.49;102513.38;4947283;28;8462;-75
2021/03/30 09:06:00;;;;;;;;;;;;;;;12.53;50.79;102510.56;4932956;28;6806;-75
2021/03/30 09:08:41;;;;;;;;;;;;;;;12.51;50.04;102511.34;4931774;28;7462;-75
2021/03/30 09:11:17;;;;;;;;;;;;;;;12.55;49.64;102510.63;4934296;28;7218;-75
2021/03/30 09:13:55;;;;;;;;;;;;;;;12.60;49.50;102510.00;4933699;28;11348;-74
2021/03/30 09:16:21;;;;;;;;;;;;;;;12.67;50.01;102511.19;4915814;28;11212;-76
2021/03/30 09:18:46;;;;;;;;;;;;;;;12.74;48.99;102508.00;4954913;28;6810;-75
2021/03/30 09:21:14;;;;;;;;;;;;;;;12.82;49.42;102508.34;4936553;28;7386;-75
2021/03/30 09:23:41;;;;;;;;;;;;;;;12.91;48.50;102506.09;4919347;28;7296;-75
2021/03/30 09:26:13;;;;;;;;;;;;;;;13.01;48.84;102496.13;4934046;28;7827;-75
2021/03/30 09:28:40;;;;;;;;;;;;;;;13.12;48.23;102503.47;4953027;28;7692;-75
2021/03/30 09:31:05;;;;;;;;;;;;;;;13.21;48.01;102501.25;4921127;28;7763;-75
2021/03/30 09:33:31;;;;;;;;;;;;;;;13.31;47.60;102499.09;4933266;28;6804;-75
2021/03/30 09:36:00;;;;;;;;;;;;;;;13.46;47.27;102497.94;4932036;28;7092;-75
2021/03/30 09:38:25;;;;;;;;;;;;;;;13.57;47.18;102492.28;4933577;28;6895;-75
2021/03/30 09:40:51;;;;;;;;;;;;;;;13.65;47.19;102485.66;4949939;28;6983;-76
2021/03/30 09:43:17;;;;;;;;;;;;;;;13.80;46.73;102484.44;4932602;28;7362;-75
2021/03/30 09:45:43;;;;;;;;;;;;;;;13.87;47.02;102482.13;4952642;28;11140;-75
2021/03/30 09:48:12;;;;;;;;;;;;;;;14.06;45.93;102483.72;4900892;29;6931;-75
2021/03/30 09:50:43;;;;;;;;;;;;;;;14.19;45.80;102474.56;4904899;28;7268;-75
2021/03/30 09:53:09;;;;;;;;;;;;;;;14.29;44.91;102477.56;4934444;28;8053;-75
2021/03/30 09:55:37;;;;;;;;;;;;;;;14.42;45.07;102467.56;4949851;28;7113;-75
2021/03/30 09:58:07;;;;;;;;;;;;;;;14.54;44.87;102471.50;4945255;28;6879;-75
2021/03/30 10:00:33;;;;;;;;;;;;;;;14.69;44.11;102462.41;4932442;28;8567;-75
2021/03/30 10:02:59;;;;;;;;;;;;;;;14.80;44.25;102466.25;4923913;28;8517;-75
2021/03/30 10:05:37;;;;;;;;;;;;;;;14.94;43.67;102459.75;4934576;28;8328;-75
2021/03/30 10:08:03;;;;;;;;;;;;;;;15.07;43.61;102451.47;4947342;28;7835;-76
2021/03/30 10:10:45;;;;;;;;;;;;;;;15.24;43.28;102448.50;4932253;28;7219;-76
2021/03/30 10:13:27;;;;;;;;;;;;;;;15.80;41.22;102452.84;4934009;28;7932;-74
2021/03/30 10:15:52;;;;;;;;;;;;;;;16.71;40.59;102444.88;4937167;28;11147;-72
2021/03/30 10:18:18;;;;;;;;;;;;;;;17.23;41.28;102446.16;4956173;28;6892;-73
2021/03/30 10:20:45;;;;;;;;;;;;;;;17.57;39.73;102446.88;4951770;28;7171;-73
2021/03/30 10:23:22;;;;;;;;;;;;;;;17.85;39.29;102437.88;4940587;28;6820;-73
2021/03/30 10:25:49;;;;;;;;;;;;;;;18.17;37.81;102442.00;4935115;28;11304;-72
2021/03/30 10:28:24;;;;;;;;;;;;;;;18.28;37.57;102439.59;4917330;28;6808;-72
2021/03/30 10:30:54;;;;;;;;;;;;;;;18.53;34.77;102435.63;4957356;28;11089;-72
2021/03/30 10:33:43;;;;;;;;;;;;;;;18.69;36.95;102434.19;4942780;28;7246;-73
2021/03/30 10:36:13;;;;;;;;;;;;;;;18.88;34.24;102428.38;4944846;28;7277;-72
2021/03/30 10:38:39;;;;;;;;;;;;;;;19.02;34.75;102428.56;4927580;28;6966;-72
2021/03/30 10:41:09;;;;;;;;;;;;;;;19.17;35.73;102430.53;4941937;28;7530;-73
2021/03/30 10:43:35;;;;;;;;;;;;;;;19.40;34.44;102429.09;4938472;28;7076;-73
2021/03/30 10:46:00;;;;;;;;;;;;;;;19.57;33.50;102419.72;4923136;28;7344;-72
2021/03/30 10:48:26;;;;;;;;;;;;;;;19.72;32.64;102416.38;4955362;28;6939;-72
2021/03/30 10:50:55;;;;;;;;;;;;;;;19.83;32.29;102419.16;4939478;28;7301;-73
2021/03/30 10:53:21;;;;;;;;;;;;;;;19.90;31.84;102410.44;4923828;28;7280;-73
2021/03/30 10:55:47;;;;;;;;;;;;;;;20.32;31.59;102410.00;4939118;28;6796;-73
2021/03/30 10:58:14;;;;;;;;;;;;;;;20.59;30.05;102412.03;4931040;28;6990;-73
2021/03/30 11:00:40;;;;;;;;;;;;;;;20.60;30.20;102405.88;4955517;28;6985;-73
2021/03/30 11:03:06;;;;;;;;;;;;;;;20.65;29.35;102404.19;4933883;28;7226;-73
2021/03/30 11:05:32;;;;;;;;;;;;;;;20.84;28.60;102399.94;4954581;28;7602;-73
2021/03/30 11:07:57;;;;;;;;;;;;;;;20.91;27.45;102391.16;4935326;28;7219;-73
2021/03/30 11:10:24;;;;;;;;;;;;;;;21.06;26.50;102395.66;4955236;28;7134;-73
2021/03/30 11:12:50;;;;;;;;;;;;;;;21.16;26.68;102389.53;4938881;28;6983;-73
2021/03/30 11:15:15;;;;;;;;;;;;;;;21.29;26.33;102391.41;4935225;28;6794;-73
2021/03/30 11:17:41;;;;;;;;;;;;;;;21.48;26.06;102382.72;4924163;28;8721;-73
2021/03/30 11:20:08;;;;;;;;;;;;;;;21.48;26.60;102385.34;4951692;28;7235;-73
2021/03/30 11:22:33;;;;;;;;;;;;;;;21.63;30.22;102373.97;4937835;28;7506;-75
2021/03/30 11:25:02;;;;;;;;;;;;;;;21.81;30.86;102378.38;4922428;28;6991;-75
2021/03/30 11:27:30;;;;;;;;;;;;;;;21.97;31.94;102369.63;4934285;28;6816;-75
2021/03/30 11:32:34;;;;;;;;;;;;;;;22.16;32.57;102359.97;4934353;28;6797;-76
2021/03/30 11:35:07;;;;;;;;;;;;;;;22.28;33.14;102357.34;4950469;28;7174;-75
2021/03/30 11:37:39;;;;;;;;;;;;;;;22.41;32.66;102355.56;4933094;28;6992;-75
2021/03/30 11:40:05;;;;;;;;;;;;;;;22.63;32.02;102357.34;4935449;28;6820;-75
2021/03/30 11:42:30;;;;;;;;;;;;;;;22.61;31.85;102359.09;4937618;28;7511;-75
2021/03/30 11:44:56;;;;;;;;;;;;;;;22.64;32.04;102358.22;4954365;28;7151;-75
2021/03/30 11:47:22;;;;;;;;;;;;;;;22.70;31.27;102350.25;4936925;28;7351;-75
2021/03/30 11:49:47;;;;;;;;;;;;;;;22.72;30.91;102353.78;4937086;28;7413;-74
2021/03/30 11:52:13;;;;;;;;;;;;;;;22.77;30.34;102349.34;4952496;28;7230;-75
2021/03/30 11:54:38;;;;;;;;;;;;;;;22.91;30.25;102352.91;4954268;28;6784;-75
2021/03/30 11:57:04;;;;;;;;;;;;;;;23.02;29.57;102348.44;4949346;28;7456;-75
2021/03/30 11:59:30;;;;;;;;;;;;;;;23.04;29.49;102340.50;4932505;28;7110;-75
2021/03/30 12:01:55;;;;;;;;;;;;;;;23.12;29.11;102337.81;4919278;28;7342;-75
2021/03/30 12:04:21;;;;;;;;;;;;;;;23.23;29.36;102339.56;4949234;28;6965;-75
2021/03/30 12:06:47;;;;;;;;;;;;;;;23.44;27.58;102345.66;4923082;28;6810;-75
2021/03/30 12:09:12;;;;;;;;;;;;;;;23.47;27.83;102340.34;4935690;28;6797;-75
2021/03/30 12:11:38;;;;;;;;;;;;;;;23.53;28.39;102330.56;4936874;28;8488;-75
2021/03/30 12:14:04;;;;;;;;;;;;;;;23.56;26.53;102327.94;4938793;28;8887;-75
2021/03/30 12:16:29;;;;;;;;;;;;;;;23.47;26.90;102330.63;4935497;28;7162;-74
2021/03/30 12:18:55;;;;;;;;;;;;;;;23.54;27.05;102323.50;4929931;28;7279;-75
2021/03/30 12:21:20;;;;;;;;;;;;;;;23.72;27.49;102323.44;4918638;28;6792;-74
2021/03/30 12:23:46;;;;;;;;;;;;;;;23.71;27.01;102318.13;4927418;28;7376;-75
2021/03/30 12:26:12;;;;;;;;;;;;;;;23.88;27.16;102322.44;4918616;28;6848;-75
2021/03/30 12:28:37;;;;;;;;;;;;;;;23.93;28.43;102311.78;4918570;28;8098;-75
2021/03/30 12:31:03;;;;;;;;;;;;;;;23.96;26.76;102320.59;4914071;28;7454;-75
2021/03/30 12:33:28;;;;;;;;;;;;;;;24.07;26.56;102299.31;4945147;28;7295;-77
2021/03/30 12:35:54;;;;;;;;;;;;;;;24.26;26.56;102294.72;4950951;28;7005;-75
2021/03/30 12:38:19;;;;;;;;;;;;;;;24.39;26.72;102293.72;4953735;28;7206;-75
2021/03/30 12:40:45;;;;;;;;;;;;;;;24.31;26.34;102286.72;4954710;28;7340;-75
2021/03/30 12:43:11;;;;;;;;;;;;;;;24.33;26.70;102288.47;4934341;28;7081;-74
2021/03/30 12:45:36;;;;;;;;;;;;;;;24.40;26.13;102290.16;4933664;28;7767;-75
2021/03/30 12:48:03;;;;;;;;;;;;;;;24.51;26.55;102283.00;4937862;28;6804;-75
2021/03/30 12:50:28;;;;;;;;;;;;;;;24.70;27.19;102285.44;4953986;28;6788;-75
2021/03/30 12:52:54;;;;;;;;;;;;;;;24.77;26.84;102271.19;4933065;28;6789;-75
2021/03/30 12:55:20;;;;;;;;;;;;;;;24.76;25.89;102269.44;4931519;28;11227;-75
2021/03/30 12:57:45;;;;;;;;;;;;;;;24.85;25.71;102270.22;4938918;28;7145;-75
2021/03/30 13:00:12;;;;;;;;;;;;;;;24.86;25.92;102274.63;4951107;28;7759;-75
2021/03/30 13:02:38;;;;;;;;;;;;;;;24.97;25.67;102263.88;4936304;28;7191;-75
2021/03/30 13:05:04;;;;;;;;;;;;;;;25.37;27.14;102258.91;4954561;28;7550;-75